Norfolk, Virginia
Traffic Map
Current Weather Conditions
Norfolk, Virginia
Few Clouds
Few Clouds
23°
Feels Like: 23°
Wind Chill: 23° Ceiling: Unl
Heat Index: 23° Visibility: 10mi
Dew Point: 17° Wind: 12mph
Humidity: 71% Direction: 350° (N)
Pressure: 29.99in Gusts: 0mph
Raw Report DataKORF 011751Z AUTO 35010KT 10SM FEW016 23/17 A2999 RMK AO2 SLP155 T02280172 10228 20200 58004 TSNO
Traffic Incident Summary
Active as of:
Severity:
Category:
InformationThere was an issue retrieving the traffic information for this location. Please try a different location or try again shortly.
Advertisements
Track Severe Weather on mobile